sensor_id;sensor_type;location;lat;lon;timestamp;P1;durP1;ratioP1;P2;durP2;ratioP2
13989;SDS011;7069;52.528;13.316;2022-08-19T00:00:17;11.52;;;10.52;;
13989;SDS011;7069;52.528;13.316;2022-08-19T00:02:44;11.95;;;10.98;;
13989;SDS011;7069;52.528;13.316;2022-08-19T00:05:13;11.30;;;10.30;;
13989;SDS011;7069;52.528;13.316;2022-08-19T00:07:39;11.98;;;10.98;;
13989;SDS011;7069;52.528;13.316;2022-08-19T00:10:08;12.90;;;10.82;;
13989;SDS011;7069;52.528;13.316;2022-08-19T00:12:35;11.45;;;10.40;;
13989;SDS011;7069;52.528;13.316;2022-08-19T00:15:02;13.15;;;10.65;;
13989;SDS011;7069;52.528;13.316;2022-08-19T00:17:29;11.93;;;10.80;;
13989;SDS011;7069;52.528;13.316;2022-08-19T00:19:55;12.05;;;11.13;;
13989;SDS011;7069;52.528;13.316;2022-08-19T00:22:23;11.85;;;10.93;;
13989;SDS011;7069;52.528;13.316;2022-08-19T00:24:49;11.55;;;10.63;;
13989;SDS011;7069;52.528;13.316;2022-08-19T00:27:15;12.18;;;10.98;;
13989;SDS011;7069;52.528;13.316;2022-08-19T00:29:41;11.88;;;10.88;;
13989;SDS011;7069;52.528;13.316;2022-08-19T00:32:08;11.48;;;10.48;;
13989;SDS011;7069;52.528;13.316;2022-08-19T00:34:35;11.38;;;10.38;;
13989;SDS011;7069;52.528;13.316;2022-08-19T00:37:01;12.45;;;11.15;;
13989;SDS011;7069;52.528;13.316;2022-08-19T00:39:29;11.85;;;10.95;;
13989;SDS011;7069;52.528;13.316;2022-08-19T00:41:55;11.93;;;10.93;;
13989;SDS011;7069;52.528;13.316;2022-08-19T00:44:23;10.50;;;9.70;;
13989;SDS011;7069;52.528;13.316;2022-08-19T00:46:50;11.73;;;10.68;;
13989;SDS011;7069;52.528;13.316;2022-08-19T00:49:19;11.43;;;10.40;;
13989;SDS011;7069;52.528;13.316;2022-08-19T00:51:47;11.55;;;10.35;;
13989;SDS011;7069;52.528;13.316;2022-08-19T00:54:14;12.02;;;11.02;;
13989;SDS011;7069;52.528;13.316;2022-08-19T00:56:42;12.25;;;11.15;;
13989;SDS011;7069;52.528;13.316;2022-08-19T00:59:10;11.45;;;10.45;;
13989;SDS011;7069;52.528;13.316;2022-08-19T01:01:36;12.00;;;10.90;;
13989;SDS011;7069;52.528;13.316;2022-08-19T01:04:03;11.63;;;10.63;;
13989;SDS011;7069;52.528;13.316;2022-08-19T01:06:30;11.38;;;10.38;;
13989;SDS011;7069;52.528;13.316;2022-08-19T01:08:57;12.02;;;10.82;;
13989;SDS011;7069;52.528;13.316;2022-08-19T01:11:24;11.50;;;10.40;;
13989;SDS011;7069;52.528;13.316;2022-08-19T01:13:52;12.80;;;11.60;;
13989;SDS011;7069;52.528;13.316;2022-08-19T01:16:20;13.07;;;11.77;;
13989;SDS011;7069;52.528;13.316;2022-08-19T01:18:46;13.32;;;11.20;;
13989;SDS011;7069;52.528;13.316;2022-08-19T01:21:15;12.93;;;11.15;;
13989;SDS011;7069;52.528;13.316;2022-08-19T01:23:45;11.73;;;10.63;;
13989;SDS011;7069;52.528;13.316;2022-08-19T01:26:13;12.88;;;11.65;;
13989;SDS011;7069;52.528;13.316;2022-08-19T01:28:41;12.50;;;11.20;;
13989;SDS011;7069;52.528;13.316;2022-08-19T01:31:08;13.27;;;11.98;;
13989;SDS011;7069;52.528;13.316;2022-08-19T01:33:36;15.43;;;11.75;;
13989;SDS011;7069;52.528;13.316;2022-08-19T01:36:04;11.82;;;10.80;;
13989;SDS011;7069;52.528;13.316;2022-08-19T01:38:30;13.25;;;12.05;;
13989;SDS011;7069;52.528;13.316;2022-08-19T01:40:58;13.40;;;12.30;;
13989;SDS011;7069;52.528;13.316;2022-08-19T01:43:24;12.98;;;11.77;;
13989;SDS011;7069;52.528;13.316;2022-08-19T01:45:51;12.98;;;11.88;;
13989;SDS011;7069;52.528;13.316;2022-08-19T01:48:18;13.43;;;12.07;;
13989;SDS011;7069;52.528;13.316;2022-08-19T01:50:44;13.07;;;11.88;;
13989;SDS011;7069;52.528;13.316;2022-08-19T01:53:12;13.02;;;11.80;;
13989;SDS011;7069;52.528;13.316;2022-08-19T01:55:40;15.43;;;13.90;;
13989;SDS011;7069;52.528;13.316;2022-08-19T01:58:09;13.80;;;12.45;;
13989;SDS011;7069;52.528;13.316;2022-08-19T02:00:36;14.02;;;12.85;;
13989;SDS011;7069;52.528;13.316;2022-08-19T02:03:03;14.82;;;13.20;;
13989;SDS011;7069;52.528;13.316;2022-08-19T02:05:31;14.32;;;13.05;;
13989;SDS011;7069;52.528;13.316;2022-08-19T02:07:57;13.52;;;12.25;;
13989;SDS011;7069;52.528;13.316;2022-08-19T02:10:24;13.52;;;12.32;;
13989;SDS011;7069;52.528;13.316;2022-08-19T02:12:51;15.18;;;13.70;;
13989;SDS011;7069;52.528;13.316;2022-08-19T02:15:19;17.42;;;15.45;;
13989;SDS011;7069;52.528;13.316;2022-08-19T02:17:46;15.00;;;13.57;;
13989;SDS011;7069;52.528;13.316;2022-08-19T02:20:12;16.10;;;14.40;;
13989;SDS011;7069;52.528;13.316;2022-08-19T02:22:39;17.33;;;15.52;;
13989;SDS011;7069;52.528;13.316;2022-08-19T02:25:07;17.45;;;15.63;;
13989;SDS011;7069;52.528;13.316;2022-08-19T02:27:34;16.50;;;14.93;;
13989;SDS011;7069;52.528;13.316;2022-08-19T02:30:00;16.52;;;15.00;;
13989;SDS011;7069;52.528;13.316;2022-08-19T02:32:28;15.77;;;14.43;;
13989;SDS011;7069;52.528;13.316;2022-08-19T02:34:55;16.88;;;15.23;;
13989;SDS011;7069;52.528;13.316;2022-08-19T02:37:21;17.00;;;15.52;;
13989;SDS011;7069;52.528;13.316;2022-08-19T02:40:06;17.75;;;16.23;;
13989;SDS011;7069;52.528;13.316;2022-08-19T02:42:32;16.50;;;14.93;;
13989;SDS011;7069;52.528;13.316;2022-08-19T02:44:58;19.27;;;17.58;;
13989;SDS011;7069;52.528;13.316;2022-08-19T02:47:25;16.98;;;15.38;;
13989;SDS011;7069;52.528;13.316;2022-08-19T02:49:53;16.08;;;14.63;;
13989;SDS011;7069;52.528;13.316;2022-08-19T02:52:19;17.75;;;16.15;;
13989;SDS011;7069;52.528;13.316;2022-08-19T02:54:48;18.67;;;17.02;;
13989;SDS011;7069;52.528;13.316;2022-08-19T02:57:14;17.58;;;15.98;;
13989;SDS011;7069;52.528;13.316;2022-08-19T02:59:41;19.17;;;17.23;;
13989;SDS011;7069;52.528;13.316;2022-08-19T03:02:07;18.77;;;17.17;;
13989;SDS011;7069;52.528;13.316;2022-08-19T03:04:33;18.80;;;17.20;;
13989;SDS011;7069;52.528;13.316;2022-08-19T03:07:01;19.73;;;18.02;;
13989;SDS011;7069;52.528;13.316;2022-08-19T03:09:27;19.13;;;17.20;;
13989;SDS011;7069;52.528;13.316;2022-08-19T03:11:55;19.20;;;17.50;;
13989;SDS011;7069;52.528;13.316;2022-08-19T03:14:21;19.95;;;18.15;;
13989;SDS011;7069;52.528;13.316;2022-08-19T03:16:48;17.90;;;16.42;;
13989;SDS011;7069;52.528;13.316;2022-08-19T03:19:16;18.30;;;16.75;;
13989;SDS011;7069;52.528;13.316;2022-08-19T03:21:42;18.95;;;17.20;;
13989;SDS011;7069;52.528;13.316;2022-08-19T03:24:11;20.70;;;18.67;;
13989;SDS011;7069;52.528;13.316;2022-08-19T03:26:38;19.88;;;18.08;;
13989;SDS011;7069;52.528;13.316;2022-08-19T03:29:05;20.98;;;18.88;;
13989;SDS011;7069;52.528;13.316;2022-08-19T03:31:33;18.63;;;17.02;;
13989;SDS011;7069;52.528;13.316;2022-08-19T03:34:00;19.50;;;17.63;;
13989;SDS011;7069;52.528;13.316;2022-08-19T03:36:26;18.27;;;16.60;;
13989;SDS011;7069;52.528;13.316;2022-08-19T03:38:54;19.52;;;17.83;;
13989;SDS011;7069;52.528;13.316;2022-08-19T03:41:23;20.02;;;18.08;;
13989;SDS011;7069;52.528;13.316;2022-08-19T03:43:50;21.50;;;19.50;;
13989;SDS011;7069;52.528;13.316;2022-08-19T03:46:18;21.17;;;19.30;;
13989;SDS011;7069;52.528;13.316;2022-08-19T03:48:45;19.83;;;18.13;;
13989;SDS011;7069;52.528;13.316;2022-08-19T03:51:16;19.23;;;17.63;;
13989;SDS011;7069;52.528;13.316;2022-08-19T03:53:43;18.58;;;16.98;;
13989;SDS011;7069;52.528;13.316;2022-08-19T03:56:09;19.50;;;17.73;;
13989;SDS011;7069;52.528;13.316;2022-08-19T03:58:37;19.63;;;17.95;;
13989;SDS011;7069;52.528;13.316;2022-08-19T04:01:06;19.85;;;18.15;;
13989;SDS011;7069;52.528;13.316;2022-08-19T04:03:33;19.95;;;18.10;;
13989;SDS011;7069;52.528;13.316;2022-08-19T04:06:08;19.65;;;17.92;;
13989;SDS011;7069;52.528;13.316;2022-08-19T04:08:34;18.38;;;16.65;;
13989;SDS011;7069;52.528;13.316;2022-08-19T04:11:01;18.30;;;16.70;;
13989;SDS011;7069;52.528;13.316;2022-08-19T04:13:27;16.77;;;15.38;;
13989;SDS011;7069;52.528;13.316;2022-08-19T04:15:55;18.27;;;16.58;;
13989;SDS011;7069;52.528;13.316;2022-08-19T04:18:21;17.45;;;15.98;;
13989;SDS011;7069;52.528;13.316;2022-08-19T04:20:47;16.77;;;15.38;;
13989;SDS011;7069;52.528;13.316;2022-08-19T04:23:14;19.10;;;17.40;;
13989;SDS011;7069;52.528;13.316;2022-08-19T04:25:41;17.58;;;16.00;;
13989;SDS011;7069;52.528;13.316;2022-08-19T04:28:08;19.42;;;17.80;;
13989;SDS011;7069;52.528;13.316;2022-08-19T04:30:39;19.40;;;17.48;;
13989;SDS011;7069;52.528;13.316;2022-08-19T04:33:08;18.02;;;16.63;;
13989;SDS011;7069;52.528;13.316;2022-08-19T04:35:35;17.88;;;16.35;;
13989;SDS011;7069;52.528;13.316;2022-08-19T04:38:02;17.33;;;15.73;;
13989;SDS011;7069;52.528;13.316;2022-08-19T04:40:28;17.48;;;16.08;;
13989;SDS011;7069;52.528;13.316;2022-08-19T04:43:12;17.58;;;16.05;;
13989;SDS011;7069;52.528;13.316;2022-08-19T04:45:40;16.80;;;15.30;;
13989;SDS011;7069;52.528;13.316;2022-08-19T04:48:09;17.33;;;15.82;;
13989;SDS011;7069;52.528;13.316;2022-08-19T04:50:35;17.58;;;15.98;;
13989;SDS011;7069;52.528;13.316;2022-08-19T04:53:02;17.95;;;16.27;;
13989;SDS011;7069;52.528;13.316;2022-08-19T04:55:29;17.35;;;15.93;;
13989;SDS011;7069;52.528;13.316;2022-08-19T04:57:56;19.30;;;17.67;;
13989;SDS011;7069;52.528;13.316;2022-08-19T05:00:22;18.27;;;16.40;;
13989;SDS011;7069;52.528;13.316;2022-08-19T05:02:49;16.75;;;15.32;;
13989;SDS011;7069;52.528;13.316;2022-08-19T05:05:17;15.55;;;14.18;;
13989;SDS011;7069;52.528;13.316;2022-08-19T05:07:44;16.83;;;15.32;;
13989;SDS011;7069;52.528;13.316;2022-08-19T05:10:11;17.13;;;15.55;;
13989;SDS011;7069;52.528;13.316;2022-08-19T05:12:37;16.88;;;15.27;;
13989;SDS011;7069;52.528;13.316;2022-08-19T05:15:04;16.98;;;15.38;;
13989;SDS011;7069;52.528;13.316;2022-08-19T05:17:33;16.70;;;15.20;;
13989;SDS011;7069;52.528;13.316;2022-08-19T05:20:00;15.05;;;13.70;;
13989;SDS011;7069;52.528;13.316;2022-08-19T05:22:46;15.18;;;13.93;;
13989;SDS011;7069;52.528;13.316;2022-08-19T05:25:13;15.68;;;14.35;;
13989;SDS011;7069;52.528;13.316;2022-08-19T05:27:40;16.58;;;15.18;;
13989;SDS011;7069;52.528;13.316;2022-08-19T05:30:07;17.02;;;15.52;;
13989;SDS011;7069;52.528;13.316;2022-08-19T05:32:34;14.18;;;13.07;;
13989;SDS011;7069;52.528;13.316;2022-08-19T05:35:01;16.13;;;14.63;;
13989;SDS011;7069;52.528;13.316;2022-08-19T05:37:27;17.20;;;15.50;;
13989;SDS011;7069;52.528;13.316;2022-08-19T05:39:55;16.92;;;15.43;;
13989;SDS011;7069;52.528;13.316;2022-08-19T05:42:21;16.63;;;15.02;;
13989;SDS011;7069;52.528;13.316;2022-08-19T05:44:48;16.35;;;14.93;;
13989;SDS011;7069;52.528;13.316;2022-08-19T05:47:15;16.08;;;14.75;;
13989;SDS011;7069;52.528;13.316;2022-08-19T05:49:43;16.50;;;15.10;;
13989;SDS011;7069;52.528;13.316;2022-08-19T05:52:10;17.35;;;15.85;;
13989;SDS011;7069;52.528;13.316;2022-08-19T05:54:37;16.13;;;14.63;;
13989;SDS011;7069;52.528;13.316;2022-08-19T05:57:07;17.63;;;16.13;;
13989;SDS011;7069;52.528;13.316;2022-08-19T05:59:33;17.75;;;16.15;;
13989;SDS011;7069;52.528;13.316;2022-08-19T06:02:00;16.92;;;15.50;;
13989;SDS011;7069;52.528;13.316;2022-08-19T06:04:27;16.98;;;15.57;;
13989;SDS011;7069;52.528;13.316;2022-08-19T06:06:53;17.73;;;16.17;;
13989;SDS011;7069;52.528;13.316;2022-08-19T06:09:21;16.05;;;14.55;;
13989;SDS011;7069;52.528;13.316;2022-08-19T06:11:49;17.50;;;15.93;;
13989;SDS011;7069;52.528;13.316;2022-08-19T06:14:20;18.48;;;16.83;;
13989;SDS011;7069;52.528;13.316;2022-08-19T06:16:47;15.50;;;14.30;;
13989;SDS011;7069;52.528;13.316;2022-08-19T06:19:16;17.63;;;16.08;;
13989;SDS011;7069;52.528;13.316;2022-08-19T06:21:44;17.73;;;15.98;;
13989;SDS011;7069;52.528;13.316;2022-08-19T06:24:12;19.40;;;17.60;;
13989;SDS011;7069;52.528;13.316;2022-08-19T06:26:39;16.80;;;15.20;;
13989;SDS011;7069;52.528;13.316;2022-08-19T06:29:06;19.25;;;17.50;;
13989;SDS011;7069;52.528;13.316;2022-08-19T06:31:34;17.65;;;16.17;;
13989;SDS011;7069;52.528;13.316;2022-08-19T06:34:01;17.92;;;16.38;;
13989;SDS011;7069;52.528;13.316;2022-08-19T06:36:29;17.58;;;16.08;;
13989;SDS011;7069;52.528;13.316;2022-08-19T06:38:56;16.20;;;14.95;;
13989;SDS011;7069;52.528;13.316;2022-08-19T06:41:23;16.48;;;15.07;;
13989;SDS011;7069;52.528;13.316;2022-08-19T06:43:49;17.50;;;16.08;;
13989;SDS011;7069;52.528;13.316;2022-08-19T06:46:16;16.92;;;15.43;;
13989;SDS011;7069;52.528;13.316;2022-08-19T06:48:45;17.35;;;16.00;;
13989;SDS011;7069;52.528;13.316;2022-08-19T06:51:11;17.45;;;16.00;;
13989;SDS011;7069;52.528;13.316;2022-08-19T06:53:40;17.83;;;16.33;;
13989;SDS011;7069;52.528;13.316;2022-08-19T06:56:12;18.38;;;16.77;;
13989;SDS011;7069;52.528;13.316;2022-08-19T06:58:38;17.65;;;15.93;;
13989;SDS011;7069;52.528;13.316;2022-08-19T07:01:05;17.98;;;16.30;;
13989;SDS011;7069;52.528;13.316;2022-08-19T07:03:33;18.30;;;16.42;;
13989;SDS011;7069;52.528;13.316;2022-08-19T07:06:03;16.90;;;15.50;;
13989;SDS011;7069;52.528;13.316;2022-08-19T07:08:30;16.92;;;15.35;;
13989;SDS011;7069;52.528;13.316;2022-08-19T07:10:56;17.20;;;15.80;;
13989;SDS011;7069;52.528;13.316;2022-08-19T07:13:23;17.67;;;16.20;;
13989;SDS011;7069;52.528;13.316;2022-08-19T07:15:50;17.42;;;16.02;;
13989;SDS011;7069;52.528;13.316;2022-08-19T07:18:17;16.10;;;14.75;;
13989;SDS011;7069;52.528;13.316;2022-08-19T07:20:43;17.92;;;16.42;;
13989;SDS011;7069;52.528;13.316;2022-08-19T07:23:11;20.10;;;18.42;;
13989;SDS011;7069;52.528;13.316;2022-08-19T07:25:38;16.92;;;15.52;;
13989;SDS011;7069;52.528;13.316;2022-08-19T07:28:04;16.98;;;15.57;;
13989;SDS011;7069;52.528;13.316;2022-08-19T07:30:32;20.52;;;18.58;;
13989;SDS011;7069;52.528;13.316;2022-08-19T07:32:59;18.70;;;17.33;;
13989;SDS011;7069;52.528;13.316;2022-08-19T07:35:25;18.08;;;16.48;;
13989;SDS011;7069;52.528;13.316;2022-08-19T07:37:53;19.65;;;18.00;;
13989;SDS011;7069;52.528;13.316;2022-08-19T07:40:21;19.70;;;17.45;;
13989;SDS011;7069;52.528;13.316;2022-08-19T07:42:47;17.88;;;16.27;;
13989;SDS011;7069;52.528;13.316;2022-08-19T07:45:13;17.60;;;15.77;;
13989;SDS011;7069;52.528;13.316;2022-08-19T07:47:41;19.40;;;17.73;;
13989;SDS011;7069;52.528;13.316;2022-08-19T07:50:08;18.67;;;16.98;;
13989;SDS011;7069;52.528;13.316;2022-08-19T07:52:36;19.70;;;17.73;;
13989;SDS011;7069;52.528;13.316;2022-08-19T07:55:03;19.05;;;17.17;;
13989;SDS011;7069;52.528;13.316;2022-08-19T07:57:31;18.85;;;17.17;;
13989;SDS011;7069;52.528;13.316;2022-08-19T07:59:59;18.02;;;16.42;;
13989;SDS011;7069;52.528;13.316;2022-08-19T08:02:25;18.65;;;17.10;;
13989;SDS011;7069;52.528;13.316;2022-08-19T08:04:51;18.98;;;17.20;;
13989;SDS011;7069;52.528;13.316;2022-08-19T08:07:35;17.10;;;15.60;;
13989;SDS011;7069;52.528;13.316;2022-08-19T08:10:19;17.38;;;15.98;;
13989;SDS011;7069;52.528;13.316;2022-08-19T08:12:47;18.27;;;16.67;;
13989;SDS011;7069;52.528;13.316;2022-08-19T08:15:15;18.52;;;16.73;;
13989;SDS011;7069;52.528;13.316;2022-08-19T08:17:43;17.55;;;15.95;;
13989;SDS011;7069;52.528;13.316;2022-08-19T08:20:10;16.70;;;15.15;;
13989;SDS011;7069;52.528;13.316;2022-08-19T08:22:42;17.30;;;15.80;;
13989;SDS011;7069;52.528;13.316;2022-08-19T08:25:26;18.63;;;16.83;;
13989;SDS011;7069;52.528;13.316;2022-08-19T08:27:54;17.65;;;16.25;;
13989;SDS011;7069;52.528;13.316;2022-08-19T08:30:22;17.42;;;15.82;;
13989;SDS011;7069;52.528;13.316;2022-08-19T08:32:49;17.23;;;15.73;;
13989;SDS011;7069;52.528;13.316;2022-08-19T08:35:18;18.05;;;16.55;;
13989;SDS011;7069;52.528;13.316;2022-08-19T08:37:45;18.40;;;16.80;;
13989;SDS011;7069;52.528;13.316;2022-08-19T08:40:15;16.83;;;15.32;;
13989;SDS011;7069;52.528;13.316;2022-08-19T08:42:43;18.85;;;17.25;;
13989;SDS011;7069;52.528;13.316;2022-08-19T08:45:13;17.45;;;16.05;;
13989;SDS011;7069;52.528;13.316;2022-08-19T08:47:41;17.67;;;16.08;;
13989;SDS011;7069;52.528;13.316;2022-08-19T08:50:12;17.17;;;15.50;;
13989;SDS011;7069;52.528;13.316;2022-08-19T08:52:41;18.38;;;16.80;;
13989;SDS011;7069;52.528;13.316;2022-08-19T08:55:10;18.98;;;17.27;;
13989;SDS011;7069;52.528;13.316;2022-08-19T08:57:38;17.73;;;16.13;;
13989;SDS011;7069;52.528;13.316;2022-08-19T09:00:07;17.17;;;15.68;;
13989;SDS011;7069;52.528;13.316;2022-08-19T09:02:35;17.10;;;15.70;;
13989;SDS011;7069;52.528;13.316;2022-08-19T09:05:02;17.00;;;15.55;;
13989;SDS011;7069;52.528;13.316;2022-08-19T09:07:31;18.98;;;17.42;;
13989;SDS011;7069;52.528;13.316;2022-08-19T09:10:02;17.75;;;16.15;;
13989;SDS011;7069;52.528;13.316;2022-08-19T09:12:31;16.88;;;15.50;;
13989;SDS011;7069;52.528;13.316;2022-08-19T09:15:04;18.58;;;16.88;;
13989;SDS011;7069;52.528;13.316;2022-08-19T09:17:33;17.58;;;16.00;;
13989;SDS011;7069;52.528;13.316;2022-08-19T09:20:03;16.98;;;15.57;;
13989;SDS011;7069;52.528;13.316;2022-08-19T09:22:33;17.65;;;16.15;;
13989;SDS011;7069;52.528;13.316;2022-08-19T09:25:00;18.00;;;16.30;;
13989;SDS011;7069;52.528;13.316;2022-08-19T09:27:27;18.00;;;16.17;;
13989;SDS011;7069;52.528;13.316;2022-08-19T09:29:53;18.58;;;16.95;;
13989;SDS011;7069;52.528;13.316;2022-08-19T09:32:20;16.98;;;15.50;;
13989;SDS011;7069;52.528;13.316;2022-08-19T09:34:47;16.58;;;15.18;;
13989;SDS011;7069;52.528;13.316;2022-08-19T09:37:15;15.73;;;14.32;;
13989;SDS011;7069;52.528;13.316;2022-08-19T09:39:41;15.60;;;14.20;;
13989;SDS011;7069;52.528;13.316;2022-08-19T09:42:08;16.92;;;15.38;;
13989;SDS011;7069;52.528;13.316;2022-08-19T09:44:37;16.55;;;15.05;;
13989;SDS011;7069;52.528;13.316;2022-08-19T09:47:03;15.25;;;13.75;;
13989;SDS011;7069;52.528;13.316;2022-08-19T09:49:30;15.65;;;14.45;;
13989;SDS011;7069;52.528;13.316;2022-08-19T09:51:57;17.08;;;15.68;;
13989;SDS011;7069;52.528;13.316;2022-08-19T09:54:25;16.40;;;14.40;;
13989;SDS011;7069;52.528;13.316;2022-08-19T09:56:52;15.00;;;13.60;;
13989;SDS011;7069;52.528;13.316;2022-08-19T09:59:18;15.13;;;13.88;;
13989;SDS011;7069;52.528;13.316;2022-08-19T10:01:45;17.42;;;15.45;;
13989;SDS011;7069;52.528;13.316;2022-08-19T10:04:11;16.25;;;14.75;;
13989;SDS011;7069;52.528;13.316;2022-08-19T10:06:39;15.50;;;14.10;;
13989;SDS011;7069;52.528;13.316;2022-08-19T10:09:08;14.65;;;13.20;;
13989;SDS011;7069;52.528;13.316;2022-08-19T10:11:39;16.33;;;15.00;;
13989;SDS011;7069;52.528;13.316;2022-08-19T10:14:06;17.00;;;15.60;;
13989;SDS011;7069;52.528;13.316;2022-08-19T10:16:33;14.88;;;13.60;;
13989;SDS011;7069;52.528;13.316;2022-08-19T10:18:59;16.63;;;15.23;;
13989;SDS011;7069;52.528;13.316;2022-08-19T10:21:26;16.27;;;14.68;;
13989;SDS011;7069;52.528;13.316;2022-08-19T10:23:54;16.20;;;14.80;;
13989;SDS011;7069;52.528;13.316;2022-08-19T10:26:22;15.30;;;14.07;;
13989;SDS011;7069;52.528;13.316;2022-08-19T10:28:50;16.08;;;14.68;;
13989;SDS011;7069;52.528;13.316;2022-08-19T10:31:17;15.45;;;14.15;;
13989;SDS011;7069;52.528;13.316;2022-08-19T10:33:44;14.63;;;13.52;;
13989;SDS011;7069;52.528;13.316;2022-08-19T10:36:12;15.95;;;14.63;;
13989;SDS011;7069;52.528;13.316;2022-08-19T10:38:40;16.98;;;15.45;;
13989;SDS011;7069;52.528;13.316;2022-08-19T10:41:08;15.95;;;14.63;;
13989;SDS011;7069;52.528;13.316;2022-08-19T10:43:34;15.73;;;13.82;;
13989;SDS011;7069;52.528;13.316;2022-08-19T10:46:04;15.65;;;14.45;;
13989;SDS011;7069;52.528;13.316;2022-08-19T10:48:31;15.52;;;13.95;;
13989;SDS011;7069;52.528;13.316;2022-08-19T10:50:58;15.77;;;14.48;;
13989;SDS011;7069;52.528;13.316;2022-08-19T10:53:42;15.80;;;14.55;;
13989;SDS011;7069;52.528;13.316;2022-08-19T10:56:08;16.33;;;15.00;;
13989;SDS011;7069;52.528;13.316;2022-08-19T10:58:51;16.83;;;15.35;;
13989;SDS011;7069;52.528;13.316;2022-08-19T11:01:19;16.25;;;14.55;;
13989;SDS011;7069;52.528;13.316;2022-08-19T11:03:46;14.75;;;13.55;;
13989;SDS011;7069;52.528;13.316;2022-08-19T11:06:12;16.02;;;14.63;;
13989;SDS011;7069;52.528;13.316;2022-08-19T11:08:38;16.95;;;15.43;;
13989;SDS011;7069;52.528;13.316;2022-08-19T11:11:06;14.52;;;13.23;;
13989;SDS011;7069;52.528;13.316;2022-08-19T11:13:34;14.27;;;13.18;;
13989;SDS011;7069;52.528;13.316;2022-08-19T11:16:03;14.45;;;13.15;;
13989;SDS011;7069;52.528;13.316;2022-08-19T11:18:31;14.52;;;13.25;;
13989;SDS011;7069;52.528;13.316;2022-08-19T11:21:04;14.18;;;12.98;;
13989;SDS011;7069;52.528;13.316;2022-08-19T11:23:31;14.43;;;13.13;;
13989;SDS011;7069;52.528;13.316;2022-08-19T11:25:58;13.70;;;12.50;;
13989;SDS011;7069;52.528;13.316;2022-08-19T11:28:24;13.02;;;11.57;;
13989;SDS011;7069;52.528;13.316;2022-08-19T11:30:50;12.05;;;10.95;;
13989;SDS011;7069;52.528;13.316;2022-08-19T11:33:17;12.80;;;11.52;;
13989;SDS011;7069;52.528;13.316;2022-08-19T11:35:45;14.40;;;13.30;;
13989;SDS011;7069;52.528;13.316;2022-08-19T11:38:11;12.82;;;11.70;;
13989;SDS011;7069;52.528;13.316;2022-08-19T11:40:38;13.70;;;12.57;;
13989;SDS011;7069;52.528;13.316;2022-08-19T11:43:05;12.23;;;11.07;;
13989;SDS011;7069;52.528;13.316;2022-08-19T11:45:31;11.93;;;10.82;;
13989;SDS011;7069;52.528;13.316;2022-08-19T11:47:57;12.98;;;11.65;;
13989;SDS011;7069;52.528;13.316;2022-08-19T11:50:24;12.38;;;11.48;;
13989;SDS011;7069;52.528;13.316;2022-08-19T11:52:54;13.00;;;11.90;;
13989;SDS011;7069;52.528;13.316;2022-08-19T11:55:20;11.43;;;10.43;;
13989;SDS011;7069;52.528;13.316;2022-08-19T11:57:47;11.07;;;10.18;;
13989;SDS011;7069;52.528;13.316;2022-08-19T12:00:14;10.93;;;9.93;;
13989;SDS011;7069;52.528;13.316;2022-08-19T12:02:40;11.48;;;10.40;;
13989;SDS011;7069;52.528;13.316;2022-08-19T12:05:07;10.70;;;9.90;;
13989;SDS011;7069;52.528;13.316;2022-08-19T12:07:34;10.07;;;9.07;;
13989;SDS011;7069;52.528;13.316;2022-08-19T12:10:02;11.13;;;10.20;;
13989;SDS011;7069;52.528;13.316;2022-08-19T12:12:28;10.07;;;9.27;;
13989;SDS011;7069;52.528;13.316;2022-08-19T12:14:55;10.65;;;9.77;;
13989;SDS011;7069;52.528;13.316;2022-08-19T12:17:23;10.65;;;9.80;;
13989;SDS011;7069;52.528;13.316;2022-08-19T12:19:50;10.32;;;9.52;;
13989;SDS011;7069;52.528;13.316;2022-08-19T12:22:16;10.48;;;9.68;;
13989;SDS011;7069;52.528;13.316;2022-08-19T12:24:42;10.07;;;9.18;;
13989;SDS011;7069;52.528;13.316;2022-08-19T12:27:10;10.25;;;9.52;;
13989;SDS011;7069;52.528;13.316;2022-08-19T12:29:36;10.00;;;9.20;;
13989;SDS011;7069;52.528;13.316;2022-08-19T12:32:03;10.60;;;9.60;;
13989;SDS011;7069;52.528;13.316;2022-08-19T12:34:29;10.32;;;9.50;;
13989;SDS011;7069;52.528;13.316;2022-08-19T12:36:56;9.80;;;8.90;;
13989;SDS011;7069;52.528;13.316;2022-08-19T12:39:22;10.38;;;9.38;;
13989;SDS011;7069;52.528;13.316;2022-08-19T12:41:49;10.48;;;9.50;;
13989;SDS011;7069;52.528;13.316;2022-08-19T12:44:17;9.05;;;8.35;;
13989;SDS011;7069;52.528;13.316;2022-08-19T12:46:43;9.27;;;8.48;;
13989;SDS011;7069;52.528;13.316;2022-08-19T12:49:10;10.43;;;9.50;;
13989;SDS011;7069;52.528;13.316;2022-08-19T12:51:36;11.15;;;10.15;;
13989;SDS011;7069;52.528;13.316;2022-08-19T12:54:02;9.63;;;8.93;;
13989;SDS011;7069;52.528;13.316;2022-08-19T12:56:30;11.77;;;10.73;;
13989;SDS011;7069;52.528;13.316;2022-08-19T12:59:00;10.80;;;9.82;;
13989;SDS011;7069;52.528;13.316;2022-08-19T13:01:28;10.23;;;9.43;;
13989;SDS011;7069;52.528;13.316;2022-08-19T13:03:57;10.73;;;9.82;;
13989;SDS011;7069;52.528;13.316;2022-08-19T13:06:24;11.13;;;10.10;;
13989;SDS011;7069;52.528;13.316;2022-08-19T13:08:50;11.13;;;10.02;;
13989;SDS011;7069;52.528;13.316;2022-08-19T13:11:17;11.25;;;10.35;;
13989;SDS011;7069;52.528;13.316;2022-08-19T13:13:44;12.27;;;11.32;;
13989;SDS011;7069;52.528;13.316;2022-08-19T13:16:11;11.23;;;10.30;;
13989;SDS011;7069;52.528;13.316;2022-08-19T13:18:39;11.18;;;10.23;;
13989;SDS011;7069;52.528;13.316;2022-08-19T13:21:07;10.70;;;9.80;;
13989;SDS011;7069;52.528;13.316;2022-08-19T13:23:34;10.60;;;9.70;;
13989;SDS011;7069;52.528;13.316;2022-08-19T13:26:02;12.15;;;11.05;;
13989;SDS011;7069;52.528;13.316;2022-08-19T13:28:29;13.57;;;12.38;;
13989;SDS011;7069;52.528;13.316;2022-08-19T13:31:16;11.55;;;10.50;;
13989;SDS011;7069;52.528;13.316;2022-08-19T13:34:01;11.40;;;10.30;;
13989;SDS011;7069;52.528;13.316;2022-08-19T13:36:28;11.25;;;10.15;;
13989;SDS011;7069;52.528;13.316;2022-08-19T13:38:54;11.30;;;10.30;;
13989;SDS011;7069;52.528;13.316;2022-08-19T13:41:21;11.73;;;10.70;;
13989;SDS011;7069;52.528;13.316;2022-08-19T13:43:47;12.88;;;11.77;;
13989;SDS011;7069;52.528;13.316;2022-08-19T13:46:14;10.57;;;9.70;;
13989;SDS011;7069;52.528;13.316;2022-08-19T13:48:40;12.52;;;11.43;;
13989;SDS011;7069;52.528;13.316;2022-08-19T13:51:08;12.05;;;11.02;;
13989;SDS011;7069;52.528;13.316;2022-08-19T13:53:35;10.88;;;9.98;;
13989;SDS011;7069;52.528;13.316;2022-08-19T13:56:04;11.30;;;10.40;;
13989;SDS011;7069;52.528;13.316;2022-08-19T13:58:31;11.25;;;10.25;;
13989;SDS011;7069;52.528;13.316;2022-08-19T14:00:57;10.90;;;10.10;;
13989;SDS011;7069;52.528;13.316;2022-08-19T14:03:24;12.82;;;11.63;;
13989;SDS011;7069;52.528;13.316;2022-08-19T14:05:50;11.73;;;10.68;;
13989;SDS011;7069;52.528;13.316;2022-08-19T14:08:18;11.75;;;10.70;;
13989;SDS011;7069;52.528;13.316;2022-08-19T14:10:45;11.50;;;10.27;;
13989;SDS011;7069;52.528;13.316;2022-08-19T14:13:13;11.45;;;10.55;;
13989;SDS011;7069;52.528;13.316;2022-08-19T14:15:39;12.55;;;10.65;;
13989;SDS011;7069;52.528;13.316;2022-08-19T14:18:06;11.55;;;10.45;;
13989;SDS011;7069;52.528;13.316;2022-08-19T14:20:33;10.75;;;9.93;;
13989;SDS011;7069;52.528;13.316;2022-08-19T14:22:59;10.77;;;9.98;;
13989;SDS011;7069;52.528;13.316;2022-08-19T14:25:28;10.13;;;9.32;;